sensor_id;sensor_type;location;lat;lon;timestamp;pressure;altitude;pressure_sealevel;temperature;humidity
13604;BME280;24578;48.264;11.436;2023-02-02T00:02:03;96530.72;;;3.00;100.00
13604;BME280;24578;48.264;11.436;2023-02-02T00:05:03;96531.28;;;3.08;100.00
13604;BME280;24578;48.264;11.436;2023-02-02T00:08:04;96534.22;;;2.97;100.00
13604;BME280;24578;48.264;11.436;2023-02-02T00:11:05;96534.34;;;2.94;100.00
13604;BME280;24578;48.264;11.436;2023-02-02T00:14:05;96533.56;;;2.92;100.00
13604;BME280;24578;48.264;11.436;2023-02-02T00:17:09;96547.22;;;2.91;100.00
13604;BME280;24578;48.264;11.436;2023-02-02T00:20:10;96525.16;;;2.88;100.00
13604;BME280;24578;48.264;11.436;2023-02-02T00:23:11;96538.78;;;2.89;100.00
13604;BME280;24578;48.264;11.436;2023-02-02T00:26:11;96547.38;;;2.88;100.00
13604;BME280;24578;48.264;11.436;2023-02-02T00:29:18;96540.63;;;2.85;100.00
13604;BME280;24578;48.264;11.436;2023-02-02T00:32:19;96508.16;;;2.87;100.00
13604;BME280;24578;48.264;11.436;2023-02-02T00:35:20;96526.34;;;2.80;100.00
13604;BME280;24578;48.264;11.436;2023-02-02T00:38:20;96524.78;;;2.76;100.00
13604;BME280;24578;48.264;11.436;2023-02-02T00:41:21;96518.44;;;2.62;100.00
13604;BME280;24578;48.264;11.436;2023-02-02T00:44:21;96511.91;;;2.55;100.00
13604;BME280;24578;48.264;11.436;2023-02-02T00:47:47;96496.13;;;2.67;100.00
13604;BME280;24578;48.264;11.436;2023-02-02T00:50:47;96512.81;;;2.52;100.00
13604;BME280;24578;48.264;11.436;2023-02-02T00:53:48;96521.50;;;2.48;100.00
13604;BME280;24578;48.264;11.436;2023-02-02T00:56:49;96512.00;;;2.52;100.00
13604;BME280;24578;48.264;11.436;2023-02-02T00:59:49;96514.31;;;2.58;100.00
13604;BME280;24578;48.264;11.436;2023-02-02T01:02:51;96515.53;;;2.48;100.00
13604;BME280;24578;48.264;11.436;2023-02-02T01:05:52;96511.66;;;2.61;100.00
13604;BME280;24578;48.264;11.436;2023-02-02T01:08:53;96513.28;;;2.64;100.00
13604;BME280;24578;48.264;11.436;2023-02-02T01:11:53;96517.53;;;2.65;100.00
13604;BME280;24578;48.264;11.436;2023-02-02T01:14:54;96499.06;;;2.56;100.00
13604;BME280;24578;48.264;11.436;2023-02-02T01:17:55;96522.38;;;2.71;100.00
13604;BME280;24578;48.264;11.436;2023-02-02T01:21:01;96500.16;;;2.73;100.00
13604;BME280;24578;48.264;11.436;2023-02-02T01:24:02;96496.81;;;2.71;100.00
13604;BME280;24578;48.264;11.436;2023-02-02T01:27:03;96507.03;;;2.72;100.00
13604;BME280;24578;48.264;11.436;2023-02-02T01:30:04;96504.56;;;2.69;100.00
13604;BME280;24578;48.264;11.436;2023-02-02T01:33:04;96504.59;;;2.68;100.00
13604;BME280;24578;48.264;11.436;2023-02-02T01:36:10;96489.41;;;2.65;100.00
13604;BME280;24578;48.264;11.436;2023-02-02T01:39:10;96493.22;;;2.77;100.00
13604;BME280;24578;48.264;11.436;2023-02-02T01:42:13;96500.88;;;2.77;100.00
13604;BME280;24578;48.264;11.436;2023-02-02T01:45:28;96473.94;;;2.68;100.00
13604;BME280;24578;48.264;11.436;2023-02-02T01:48:32;96479.00;;;2.69;100.00
13604;BME280;24578;48.264;11.436;2023-02-02T01:51:46;96490.00;;;2.71;100.00
13604;BME280;24578;48.264;11.436;2023-02-02T01:55:02;96474.94;;;2.64;100.00
13604;BME280;24578;48.264;11.436;2023-02-02T01:58:18;96478.53;;;2.82;100.00
13604;BME280;24578;48.264;11.436;2023-02-02T02:01:21;96483.88;;;2.76;100.00
13604;BME280;24578;48.264;11.436;2023-02-02T02:04:24;96477.94;;;2.75;100.00
13604;BME280;24578;48.264;11.436;2023-02-02T02:07:26;96477.47;;;2.87;100.00
13604;BME280;24578;48.264;11.436;2023-02-02T02:10:27;96463.41;;;2.76;100.00
13604;BME280;24578;48.264;11.436;2023-02-02T02:13:30;96449.94;;;2.72;100.00
13604;BME280;24578;48.264;11.436;2023-02-02T02:17:15;96473.78;;;2.72;100.00
13604;BME280;24578;48.264;11.436;2023-02-02T02:20:53;96467.59;;;2.78;100.00
13604;BME280;24578;48.264;11.436;2023-02-02T02:28:19;96465.69;;;2.83;100.00
13604;BME280;24578;48.264;11.436;2023-02-02T02:37:53;96470.09;;;2.80;100.00
13604;BME280;24578;48.264;11.436;2023-02-02T02:41:02;96466.66;;;2.81;100.00
13604;BME280;24578;48.264;11.436;2023-02-02T02:44:10;96473.50;;;2.80;100.00
13604;BME280;24578;48.264;11.436;2023-02-02T02:47:11;96457.19;;;2.83;100.00
13604;BME280;24578;48.264;11.436;2023-02-02T02:50:12;96471.06;;;2.77;100.00
13604;BME280;24578;48.264;11.436;2023-02-02T02:53:17;96473.44;;;2.82;100.00
13604;BME280;24578;48.264;11.436;2023-02-02T02:56:35;96474.44;;;2.78;100.00
13604;BME280;24578;48.264;11.436;2023-02-02T03:06:53;96477.06;;;2.76;100.00
13604;BME280;24578;48.264;11.436;2023-02-02T03:09:58;96483.25;;;2.69;100.00
13604;BME280;24578;48.264;11.436;2023-02-02T03:13:06;96470.72;;;2.63;100.00
13604;BME280;24578;48.264;11.436;2023-02-02T03:16:09;96475.72;;;2.42;100.00
13604;BME280;24578;48.264;11.436;2023-02-02T03:19:10;96478.78;;;2.52;100.00
13604;BME280;24578;48.264;11.436;2023-02-02T03:22:10;96478.09;;;2.47;100.00
13604;BME280;24578;48.264;11.436;2023-02-02T03:25:11;96464.66;;;2.41;100.00
13604;BME280;24578;48.264;11.436;2023-02-02T03:28:12;96465.09;;;2.29;100.00
13604;BME280;24578;48.264;11.436;2023-02-02T03:31:13;96493.63;;;2.17;100.00
13604;BME280;24578;48.264;11.436;2023-02-02T03:34:14;96477.88;;;2.29;100.00
13604;BME280;24578;48.264;11.436;2023-02-02T03:37:15;96471.88;;;2.30;100.00
13604;BME280;24578;48.264;11.436;2023-02-02T03:40:15;96475.53;;;2.23;100.00
13604;BME280;24578;48.264;11.436;2023-02-02T03:43:23;96475.16;;;2.34;100.00
13604;BME280;24578;48.264;11.436;2023-02-02T03:46:23;96485.44;;;2.32;100.00
13604;BME280;24578;48.264;11.436;2023-02-02T03:49:24;96481.44;;;2.49;100.00
13604;BME280;24578;48.264;11.436;2023-02-02T03:52:25;96492.75;;;2.41;100.00
13604;BME280;24578;48.264;11.436;2023-02-02T03:55:25;96490.44;;;2.35;100.00
13604;BME280;24578;48.264;11.436;2023-02-02T03:58:26;96490.09;;;2.44;100.00
13604;BME280;24578;48.264;11.436;2023-02-02T04:01:28;96492.81;;;2.40;100.00
13604;BME280;24578;48.264;11.436;2023-02-02T04:04:29;96493.50;;;2.45;100.00
13604;BME280;24578;48.264;11.436;2023-02-02T04:07:29;96464.72;;;2.40;100.00
13604;BME280;24578;48.264;11.436;2023-02-02T04:10:30;96489.56;;;2.36;100.00
13604;BME280;24578;48.264;11.436;2023-02-02T04:13:30;96487.09;;;2.33;100.00
13604;BME280;24578;48.264;11.436;2023-02-02T04:16:31;96487.78;;;2.38;100.00
13604;BME280;24578;48.264;11.436;2023-02-02T04:19:35;96488.66;;;2.37;100.00
13604;BME280;24578;48.264;11.436;2023-02-02T04:22:35;96498.88;;;2.37;100.00
13604;BME280;24578;48.264;11.436;2023-02-02T04:25:36;96498.00;;;2.38;100.00
13604;BME280;24578;48.264;11.436;2023-02-02T04:28:36;96493.25;;;2.27;100.00
13604;BME280;24578;48.264;11.436;2023-02-02T04:31:37;96481.03;;;2.36;100.00
13604;BME280;24578;48.264;11.436;2023-02-02T04:34:37;96486.16;;;2.36;100.00
13604;BME280;24578;48.264;11.436;2023-02-02T04:37:38;96492.28;;;2.32;100.00
13604;BME280;24578;48.264;11.436;2023-02-02T04:40:40;96474.38;;;2.32;100.00
13604;BME280;24578;48.264;11.436;2023-02-02T04:43:41;96486.09;;;2.37;100.00
13604;BME280;24578;48.264;11.436;2023-02-02T04:46:42;96498.53;;;2.47;100.00
13604;BME280;24578;48.264;11.436;2023-02-02T04:49:43;96509.56;;;2.49;100.00
13604;BME280;24578;48.264;11.436;2023-02-02T04:52:43;96504.53;;;2.46;100.00
13604;BME280;24578;48.264;11.436;2023-02-02T04:55:44;96502.06;;;2.44;100.00
13604;BME280;24578;48.264;11.436;2023-02-02T04:58:44;96494.91;;;2.54;100.00
13604;BME280;24578;48.264;11.436;2023-02-02T05:01:45;96520.56;;;2.51;100.00
13604;BME280;24578;48.264;11.436;2023-02-02T05:04:45;96508.66;;;2.50;100.00
13604;BME280;24578;48.264;11.436;2023-02-02T05:07:46;96517.13;;;2.52;100.00
13604;BME280;24578;48.264;11.436;2023-02-02T05:10:46;96517.13;;;2.52;100.00
13604;BME280;24578;48.264;11.436;2023-02-02T05:13:52;96515.44;;;2.51;100.00
13604;BME280;24578;48.264;11.436;2023-02-02T05:16:52;96524.81;;;2.50;100.00
13604;BME280;24578;48.264;11.436;2023-02-02T05:19:53;96527.09;;;2.58;100.00
13604;BME280;24578;48.264;11.436;2023-02-02T05:22:54;96523.78;;;2.56;100.00
13604;BME280;24578;48.264;11.436;2023-02-02T05:25:55;96529.91;;;2.52;100.00
13604;BME280;24578;48.264;11.436;2023-02-02T05:28:56;96523.16;;;2.49;100.00
13604;BME280;24578;48.264;11.436;2023-02-02T05:31:56;96535.66;;;2.57;100.00
13604;BME280;24578;48.264;11.436;2023-02-02T05:34:57;96531.22;;;2.62;100.00
13604;BME280;24578;48.264;11.436;2023-02-02T05:37:57;96527.06;;;2.59;100.00
13604;BME280;24578;48.264;11.436;2023-02-02T05:40:58;96529.63;;;2.59;100.00
13604;BME280;24578;48.264;11.436;2023-02-02T05:44:00;96534.16;;;2.51;100.00
13604;BME280;24578;48.264;11.436;2023-02-02T05:47:01;96515.97;;;2.61;100.00
13604;BME280;24578;48.264;11.436;2023-02-02T05:50:01;96523.34;;;2.68;100.00
13604;BME280;24578;48.264;11.436;2023-02-02T05:53:02;96510.75;;;2.64;100.00
13604;BME280;24578;48.264;11.436;2023-02-02T05:56:03;96511.38;;;2.69;100.00
13604;BME280;24578;48.264;11.436;2023-02-02T05:59:04;96516.22;;;2.77;100.00
13604;BME280;24578;48.264;11.436;2023-02-02T06:02:06;96523.09;;;2.74;100.00
13604;BME280;24578;48.264;11.436;2023-02-02T06:05:07;96519.84;;;2.71;100.00
13604;BME280;24578;48.264;11.436;2023-02-02T06:08:07;96529.69;;;2.82;100.00
13604;BME280;24578;48.264;11.436;2023-02-02T06:11:10;96539.06;;;2.81;100.00
13604;BME280;24578;48.264;11.436;2023-02-02T06:14:12;96529.78;;;2.79;100.00
13604;BME280;24578;48.264;11.436;2023-02-02T06:17:13;96514.16;;;2.86;100.00
13604;BME280;24578;48.264;11.436;2023-02-02T06:20:14;96526.63;;;2.96;100.00
13604;BME280;24578;48.264;11.436;2023-02-02T06:23:14;96543.25;;;2.84;100.00
13604;BME280;24578;48.264;11.436;2023-02-02T06:26:16;96531.06;;;2.91;100.00
13604;BME280;24578;48.264;11.436;2023-02-02T06:29:17;96551.28;;;2.97;100.00
13604;BME280;24578;48.264;11.436;2023-02-02T06:32:17;96544.13;;;2.83;100.00
13604;BME280;24578;48.264;11.436;2023-02-02T06:35:18;96541.59;;;2.81;100.00
13604;BME280;24578;48.264;11.436;2023-02-02T06:38:19;96540.69;;;2.84;100.00
13604;BME280;24578;48.264;11.436;2023-02-02T06:41:20;96550.13;;;2.82;100.00
13604;BME280;24578;48.264;11.436;2023-02-02T06:44:20;96553.38;;;2.87;100.00
13604;BME280;24578;48.264;11.436;2023-02-02T06:47:21;96565.25;;;2.88;100.00
13604;BME280;24578;48.264;11.436;2023-02-02T06:50:21;96563.47;;;2.90;100.00
13604;BME280;24578;48.264;11.436;2023-02-02T06:53:22;96535.28;;;2.92;100.00
13604;BME280;24578;48.264;11.436;2023-02-02T06:56:22;96548.91;;;2.92;100.00
13604;BME280;24578;48.264;11.436;2023-02-02T06:59:23;96546.94;;;2.99;100.00
13604;BME280;24578;48.264;11.436;2023-02-02T07:02:23;96576.47;;;2.84;100.00
13604;BME280;24578;48.264;11.436;2023-02-02T07:05:26;96562.53;;;2.93;100.00
13604;BME280;24578;48.264;11.436;2023-02-02T07:08:27;96529.94;;;2.98;100.00
13604;BME280;24578;48.264;11.436;2023-02-02T07:11:27;96575.97;;;2.98;100.00
13604;BME280;24578;48.264;11.436;2023-02-02T07:14:28;96583.72;;;2.96;100.00
13604;BME280;24578;48.264;11.436;2023-02-02T07:17:28;96579.09;;;3.06;100.00
13604;BME280;24578;48.264;11.436;2023-02-02T07:20:29;96583.31;;;3.07;100.00
13604;BME280;24578;48.264;11.436;2023-02-02T07:23:31;96582.03;;;2.95;100.00
13604;BME280;24578;48.264;11.436;2023-02-02T07:26:34;96597.47;;;2.92;100.00
13604;BME280;24578;48.264;11.436;2023-02-02T07:29:35;96600.41;;;2.81;100.00
13604;BME280;24578;48.264;11.436;2023-02-02T07:32:35;96592.75;;;2.81;100.00
13604;BME280;24578;48.264;11.436;2023-02-02T07:35:36;96586.81;;;2.81;100.00
13604;BME280;24578;48.264;11.436;2023-02-02T07:38:36;96592.19;;;2.73;100.00
13604;BME280;24578;48.264;11.436;2023-02-02T07:41:37;96586.81;;;2.81;100.00
13604;BME280;24578;48.264;11.436;2023-02-02T07:44:38;96589.28;;;2.84;100.00
13604;BME280;24578;48.264;11.436;2023-02-02T07:47:38;96592.72;;;2.83;100.00
13604;BME280;24578;48.264;11.436;2023-02-02T07:50:39;96592.59;;;2.86;100.00
13604;BME280;24578;48.264;11.436;2023-02-02T07:53:43;96611.50;;;2.82;100.00
13604;BME280;24578;48.264;11.436;2023-02-02T07:56:44;96600.81;;;2.94;100.00
13604;BME280;24578;48.264;11.436;2023-02-02T07:59:44;96617.47;;;3.06;100.00
13604;BME280;24578;48.264;11.436;2023-02-02T08:02:47;96609.41;;;3.17;100.00
13604;BME280;24578;48.264;11.436;2023-02-02T08:05:48;96610.75;;;3.03;100.00
13604;BME280;24578;48.264;11.436;2023-02-02T08:08:50;96616.56;;;3.07;100.00
13604;BME280;24578;48.264;11.436;2023-02-02T08:11:51;96611.22;;;3.13;100.00
13604;BME280;24578;48.264;11.436;2023-02-02T08:14:52;96618.97;;;3.12;100.00
13604;BME280;24578;48.264;11.436;2023-02-02T08:17:52;96620.63;;;3.13;100.00
13604;BME280;24578;48.264;11.436;2023-02-02T08:20:57;96636.53;;;3.21;100.00
13604;BME280;24578;48.264;11.436;2023-02-02T08:23:57;96635.78;;;3.19;100.00
13604;BME280;24578;48.264;11.436;2023-02-02T08:26:58;96635.78;;;3.19;100.00
13604;BME280;24578;48.264;11.436;2023-02-02T08:29:58;96649.09;;;3.27;100.00
13604;BME280;24578;48.264;11.436;2023-02-02T08:32:59;96659.84;;;3.37;100.00
13604;BME280;24578;48.264;11.436;2023-02-02T08:36:00;96660.56;;;3.41;100.00
13604;BME280;24578;48.264;11.436;2023-02-02T08:39:03;96657.38;;;3.34;100.00
13604;BME280;24578;48.264;11.436;2023-02-02T08:42:05;96660.06;;;3.31;100.00
13604;BME280;24578;48.264;11.436;2023-02-02T08:45:06;96651.06;;;3.20;100.00
13604;BME280;24578;48.264;11.436;2023-02-02T08:48:06;96666.94;;;3.29;100.00
13604;BME280;24578;48.264;11.436;2023-02-02T08:51:10;96645.44;;;3.11;100.00
13604;BME280;24578;48.264;11.436;2023-02-02T08:54:11;96654.84;;;3.10;100.00
13604;BME280;24578;48.264;11.436;2023-02-02T08:57:12;96658.28;;;3.09;100.00
13604;BME280;24578;48.264;11.436;2023-02-02T09:00:13;96644.44;;;3.15;100.00
13604;BME280;24578;48.264;11.436;2023-02-02T09:03:15;96653.38;;;3.50;100.00
13604;BME280;24578;48.264;11.436;2023-02-02T09:06:18;96661.56;;;3.37;100.00
13604;BME280;24578;48.264;11.436;2023-02-02T09:09:18;96670.28;;;3.31;100.00
13604;BME280;24578;48.264;11.436;2023-02-02T09:12:19;96686.59;;;3.28;100.00
13604;BME280;24578;48.264;11.436;2023-02-02T09:15:19;96685.81;;;3.26;100.00
13604;BME280;24578;48.264;11.436;2023-02-02T09:18:20;96678.59;;;3.14;100.00
13604;BME280;24578;48.264;11.436;2023-02-02T09:21:21;96680.00;;;3.21;100.00
13604;BME280;24578;48.264;11.436;2023-02-02T09:24:22;96684.22;;;3.24;100.00
13604;BME280;24578;48.264;11.436;2023-02-02T09:27:22;96679.97;;;3.23;100.00
13604;BME280;24578;48.264;11.436;2023-02-02T09:30:23;96679.59;;;3.33;100.00
13604;BME280;24578;48.264;11.436;2023-02-02T09:33:23;96682.53;;;3.23;100.00
13604;BME280;24578;48.264;11.436;2023-02-02T09:36:24;96685.31;;;3.40;100.00
13604;BME280;24578;48.264;11.436;2023-02-02T09:39:26;96681.25;;;3.58;100.00
13604;BME280;24578;48.264;11.436;2023-02-02T09:46:21;96695.41;;;3.45;100.00
13604;BME280;24578;48.264;11.436;2023-02-02T09:55:54;96691.00;;;3.48;100.00
13604;BME280;24578;48.264;11.436;2023-02-02T09:58:59;96701.66;;;3.60;100.00
13604;BME280;24578;48.264;11.436;2023-02-02T10:02:12;96707.88;;;3.76;100.00
13604;BME280;24578;48.264;11.436;2023-02-02T10:05:21;96692.28;;;3.60;100.00
13604;BME280;24578;48.264;11.436;2023-02-02T10:08:33;96691.91;;;3.70;100.00
13604;BME280;24578;48.264;11.436;2023-02-02T10:11:54;96694.19;;;3.77;100.00
13604;BME280;24578;48.264;11.436;2023-02-02T10:18:37;96705.03;;;3.84;100.00
13604;BME280;24578;48.264;11.436;2023-02-02T10:22:05;96713.09;;;3.97;100.00
13604;BME280;24578;48.264;11.436;2023-02-02T10:25:15;96696.16;;;3.93;100.00
13604;BME280;24578;48.264;11.436;2023-02-02T10:28:36;96694.50;;;3.92;100.00
13604;BME280;24578;48.264;11.436;2023-02-02T10:31:50;96705.88;;;3.85;100.00
13604;BME280;24578;48.264;11.436;2023-02-02T10:35:37;96699.41;;;3.74;100.00
13604;BME280;24578;48.264;11.436;2023-02-02T10:38:57;96696.16;;;3.71;100.00
13604;BME280;24578;48.264;11.436;2023-02-02T10:45:27;96697.16;;;3.66;100.00
13604;BME280;24578;48.264;11.436;2023-02-02T10:48:32;96689.81;;;3.57;100.00
13604;BME280;24578;48.264;11.436;2023-02-02T10:51:35;96708.25;;;3.67;100.00
13604;BME280;24578;48.264;11.436;2023-02-02T10:54:41;96698.81;;;3.68;100.00
13604;BME280;24578;48.264;11.436;2023-02-02T10:58:05;96714.34;;;3.87;100.00
13604;BME280;24578;48.264;11.436;2023-02-02T11:01:09;96690.63;;;4.04;100.00
13604;BME280;24578;48.264;11.436;2023-02-02T11:04:10;96696.59;;;4.04;100.00
13604;BME280;24578;48.264;11.436;2023-02-02T11:07:29;96690.22;;;3.92;100.00
13604;BME280;24578;48.264;11.436;2023-02-02T11:10:31;96682.72;;;4.10;100.00
13604;BME280;24578;48.264;11.436;2023-02-02T11:13:41;96692.53;;;3.99;100.00
13604;BME280;24578;48.264;11.436;2023-02-02T11:17:02;96685.28;;;3.88;100.00
13604;BME280;24578;48.264;11.436;2023-02-02T11:20:29;96683.66;;;3.85;100.00
13604;BME280;24578;48.264;11.436;2023-02-02T11:23:30;96697.41;;;3.83;100.00
13604;BME280;24578;48.264;11.436;2023-02-02T11:26:50;96702.25;;;3.66;100.00
13604;BME280;24578;48.264;11.436;2023-02-02T11:29:58;96707.25;;;3.71;100.00
13604;BME280;24578;48.264;11.436;2023-02-02T11:33:25;96697.03;;;3.70;100.00
13604;BME280;24578;48.264;11.436;2023-02-02T11:36:27;96695.06;;;3.76;100.00
13604;BME280;24578;48.264;11.436;2023-02-02T11:39:28;96707.16;;;3.73;100.00
13604;BME280;24578;48.264;11.436;2023-02-02T11:42:29;96710.56;;;3.49;100.00
13604;BME280;24578;48.264;11.436;2023-02-02T11:45:39;96710.38;;;3.56;100.00
13604;BME280;24578;48.264;11.436;2023-02-02T11:48:57;96685.94;;;3.47;100.00
13604;BME280;24578;48.264;11.436;2023-02-02T11:52:06;96698.00;;;3.43;100.00
13604;BME280;24578;48.264;11.436;2023-02-02T11:55:17;96688.16;;;3.32;100.00
13604;BME280;24578;48.264;11.436;2023-02-02T11:58:45;96699.38;;;3.52;100.00
13604;BME280;24578;48.264;11.436;2023-02-02T12:01:46;96698.84;;;3.44;100.00
13604;BME280;24578;48.264;11.436;2023-02-02T12:04:51;96704.03;;;3.42;100.00
13604;BME280;24578;48.264;11.436;2023-02-02T12:07:52;96701.75;;;3.34;100.00
13604;BME280;24578;48.264;11.436;2023-02-02T12:11:03;96700.06;;;3.33;100.00
13604;BME280;24578;48.264;11.436;2023-02-02T12:17:42;96703.81;;;3.23;100.00
13604;BME280;24578;48.264;11.436;2023-02-02T12:21:02;96703.22;;;3.16;100.00
13604;BME280;24578;48.264;11.436;2023-02-02T12:24:31;96707.50;;;3.16;100.00
13604;BME280;24578;48.264;11.436;2023-02-02T12:41:20;96697.75;;;3.02;100.00
13604;BME280;24578;48.264;11.436;2023-02-02T12:44:40;96700.81;;;3.12;100.00
13604;BME280;24578;48.264;11.436;2023-02-02T13:05:03;96690.06;;;3.02;100.00
13604;BME280;24578;48.264;11.436;2023-02-02T13:08:13;96700.31;;;3.02;100.00
13604;BME280;24578;48.264;11.436;2023-02-02T13:11:34;96701.34;;;2.96;100.00
13604;BME280;24578;48.264;11.436;2023-02-02T13:14:50;96724.00;;;3.07;100.00
13604;BME280;24578;48.264;11.436;2023-02-02T13:17:56;96704.88;;;3.17;100.00
13604;BME280;24578;48.264;11.436;2023-02-02T13:21:02;96712.94;;;3.07;100.00
13604;BME280;24578;48.264;11.436;2023-02-02T13:24:11;96726.19;;;2.93;100.00
13604;BME280;24578;48.264;11.436;2023-02-02T13:27:18;96727.91;;;2.92;100.00
13604;BME280;24578;48.264;11.436;2023-02-02T13:30:29;96736.16;;;3.00;100.00
13604;BME280;24578;48.264;11.436;2023-02-02T13:33:34;96738.13;;;2.92;100.00
13604;BME280;24578;48.264;11.436;2023-02-02T13:36:40;96755.13;;;2.95;100.00
13604;BME280;24578;48.264;11.436;2023-02-02T13:39:55;96743.31;;;2.91;100.00
13604;BME280;24578;48.264;11.436;2023-02-02T13:49:45;96745.28;;;2.82;100.00
13604;BME280;24578;48.264;11.436;2023-02-02T14:03:29;96747.53;;;2.92;100.00
13604;BME280;24578;48.264;11.436;2023-02-02T14:07:01;96758.03;;;2.84;100.00
13604;BME280;24578;48.264;11.436;2023-02-02T14:10:05;96763.16;;;2.84;100.00
13604;BME280;24578;48.264;11.436;2023-02-02T14:13:19;96754.50;;;2.88;100.00
13604;BME280;24578;48.264;11.436;2023-02-02T14:22:46;96780.97;;;2.85;100.00
13604;BME280;24578;48.264;11.436;2023-02-02T14:25:47;96772.16;;;2.96;100.00
13604;BME280;24578;48.264;11.436;2023-02-02T14:28:52;96774.88;;;2.89;100.00
13604;BME280;24578;48.264;11.436;2023-02-02T14:31:55;96781.03;;;2.84;100.00
13604;BME280;24578;48.264;11.436;2023-02-02T14:35:50;96786.38;;;3.03;100.00
13604;BME280;24578;48.264;11.436;2023-02-02T14:48:27;96789.03;;;3.00;100.00
13604;BME280;24578;48.264;11.436;2023-02-02T14:51:30;96794.41;;;2.92;100.00
13604;BME280;24578;48.264;11.436;2023-02-02T14:54:37;96797.06;;;2.89;100.00
13604;BME280;24578;48.264;11.436;2023-02-02T14:57:39;96781.34;;;3.00;100.00
13604;BME280;24578;48.264;11.436;2023-02-02T15:00:40;96782.56;;;2.89;100.00
13604;BME280;24578;48.264;11.436;2023-02-02T15:14:02;96782.50;;;2.91;100.00
13604;BME280;24578;48.264;11.436;2023-02-02T15:20:34;96798.53;;;2.96;100.00
13604;BME280;24578;48.264;11.436;2023-02-02T15:23:42;96797.06;;;2.89;100.00
13604;BME280;24578;48.264;11.436;2023-02-02T15:26:44;96818.47;;;2.86;100.00
13604;BME280;24578;48.264;11.436;2023-02-02T15:29:53;96816.75;;;2.87;100.00
13604;BME280;24578;48.264;11.436;2023-02-02T15:32:55;96833.00;;;2.84;100.00
13604;BME280;24578;48.264;11.436;2023-02-02T15:35:59;96825.41;;;2.83;100.00
13604;BME280;24578;48.264;11.436;2023-02-02T15:42:39;96825.97;;;2.91;100.00
13604;BME280;24578;48.264;11.436;2023-02-02T15:46:01;96823.63;;;2.85;100.00
13604;BME280;24578;48.264;11.436;2023-02-02T15:52:25;96837.53;;;2.76;100.00
13604;BME280;24578;48.264;11.436;2023-02-02T15:55:33;96853.69;;;2.77;100.00
13604;BME280;24578;48.264;11.436;2023-02-02T15:58:37;96836.59;;;2.79;100.00
13604;BME280;24578;48.264;11.436;2023-02-02T16:01:47;96833.94;;;2.82;100.00
13604;BME280;24578;48.264;11.436;2023-02-02T16:04:48;96869.91;;;2.77;100.00
13604;BME280;24578;48.264;11.436;2023-02-02T16:07:49;96865.81;;;2.71;100.00
13604;BME280;24578;48.264;11.436;2023-02-02T16:11:02;96874.38;;;2.70;100.00
13604;BME280;24578;48.264;11.436;2023-02-02T16:14:07;96882.84;;;2.72;100.00
13604;BME280;24578;48.264;11.436;2023-02-02T16:17:12;96876.72;;;2.77;100.00
13604;BME280;24578;48.264;11.436;2023-02-02T16:20:14;96876.63;;;2.80;100.00
13604;BME280;24578;48.264;11.436;2023-02-02T16:23:23;96885.09;;;2.82;100.00
13604;BME280;24578;48.264;11.436;2023-02-02T16:26:28;96876.69;;;2.78;100.00
13604;BME280;24578;48.264;11.436;2023-02-02T16:29:32;96884.16;;;2.84;100.00
13604;BME280;24578;48.264;11.436;2023-02-02T16:32:35;96893.50;;;2.85;100.00
13604;BME280;24578;48.264;11.436;2023-02-02T16:35:38;96900.25;;;2.88;100.00
13604;BME280;24578;48.264;11.436;2023-02-02T16:38:41;96911.91;;;2.97;100.00
13604;BME280;24578;48.264;11.436;2023-02-02T16:41:42;96910.59;;;2.83;100.00
13604;BME280;24578;48.264;11.436;2023-02-02T16:44:44;96907.16;;;2.84;100.00
13604;BME280;24578;48.264;11.436;2023-02-02T16:47:44;96915.88;;;2.79;100.00
13604;BME280;24578;48.264;11.436;2023-02-02T16:51:05;96930.41;;;2.77;100.00
13604;BME280;24578;48.264;11.436;2023-02-02T16:54:10;96928.28;;;2.91;100.00
13604;BME280;24578;48.264;11.436;2023-02-02T16:57:29;96938.72;;;2.85;100.00
13604;BME280;24578;48.264;11.436;2023-02-02T17:00:31;96937.41;;;2.71;100.00
13604;BME280;24578;48.264;11.436;2023-02-02T17:03:35;96929.59;;;2.76;100.00
13604;BME280;24578;48.264;11.436;2023-02-02T17:06:37;96946.59;;;2.77;100.00
13604;BME280;24578;48.264;11.436;2023-02-02T17:09:40;96950.19;;;2.71;100.00
13604;BME280;24578;48.264;11.436;2023-02-02T17:12:41;96945.84;;;2.73;100.00
13604;BME280;24578;48.264;11.436;2023-02-02T17:15:41;96958.44;;;2.80;100.00
13604;BME280;24578;48.264;11.436;2023-02-02T17:18:42;96964.41;;;2.80;100.00
13604;BME280;24578;48.264;11.436;2023-02-02T17:21:42;96972.31;;;2.72;100.00
13604;BME280;24578;48.264;11.436;2023-02-02T17:24:46;96963.63;;;2.78;100.00
13604;BME280;24578;48.264;11.436;2023-02-02T17:27:47;96973.72;;;2.83;100.00
13604;BME280;24578;48.264;11.436;2023-02-02T17:30:57;96969.47;;;2.82;100.00
13604;BME280;24578;48.264;11.436;2023-02-02T17:33:59;96979.41;;;2.91;100.00
13604;BME280;24578;48.264;11.436;2023-02-02T17:36:59;96977.84;;;2.87;100.00
13604;BME280;24578;48.264;11.436;2023-02-02T17:40:00;96996.59;;;2.87;100.00
13604;BME280;24578;48.264;11.436;2023-02-02T17:43:00;96976.91;;;2.89;100.00
13604;BME280;24578;48.264;11.436;2023-02-02T17:46:02;96994.09;;;2.86;100.00
13604;BME280;24578;48.264;11.436;2023-02-02T17:49:03;96978.81;;;2.83;100.00
13604;BME280;24578;48.264;11.436;2023-02-02T17:52:04;96993.97;;;2.89;100.00
13604;BME280;24578;48.264;11.436;2023-02-02T17:55:12;97005.75;;;2.95;100.00
13604;BME280;24578;48.264;11.436;2023-02-02T17:58:13;96998.13;;;2.93;100.00
13604;BME280;24578;48.264;11.436;2023-02-02T18:01:16;97004.03;;;2.95;100.00
13604;BME280;24578;48.264;11.436;2023-02-02T18:04:17;97014.25;;;2.95;100.00
13604;BME280;24578;48.264;11.436;2023-02-02T18:07:17;97018.66;;;2.90;100.00
13604;BME280;24578;48.264;11.436;2023-02-02T18:10:18;97026.69;;;3.08;100.00